createdAt,value
2018-03-11T00:00:54.168Z,20.67
2018-03-11T00:06:58.670Z,22.50
2018-03-11T00:13:04.154Z,20.17
2018-03-11T00:19:08.790Z,25.27
2018-03-11T00:25:13.289Z,21.53
2018-03-11T00:31:17.919Z,21.13
2018-03-11T00:37:22.477Z,20.70
2018-03-11T00:43:27.869Z,21.73
2018-03-11T00:49:32.367Z,21.73
2018-03-11T00:55:37.650Z,20.17
2018-03-11T01:01:42.134Z,26.50
2018-03-11T01:07:47.661Z,25.03
2018-03-11T01:13:52.309Z,26.63
2018-03-11T01:19:57.601Z,28.30
2018-03-11T01:26:02.096Z,24.30
2018-03-11T01:32:07.391Z,27.93
2018-03-11T01:38:12.906Z,23.73
2018-03-11T01:44:17.482Z,20.80
2018-03-11T01:50:22.229Z,21.23
2018-03-11T01:56:27.505Z,25.67
2018-03-11T02:02:31.997Z,24.97
2018-03-11T02:08:36.931Z,26.57
2018-03-11T02:14:41.439Z,24.97
2018-03-11T02:20:46.567Z,33.83
2018-03-11T02:26:52.575Z,31.20
2018-03-11T02:32:57.324Z,26.73
2018-03-11T02:39:01.847Z,27.13
2018-03-11T02:45:06.422Z,26.00
2018-03-11T02:51:11.039Z,24.07
2018-03-11T02:57:15.606Z,27.80
2018-03-11T03:03:20.886Z,24.83
2018-03-11T03:09:25.591Z,24.33
2018-03-11T03:15:30.168Z,23.83
2018-03-11T03:21:34.671Z,26.37
2018-03-11T03:27:39.231Z,24.10
2018-03-11T03:33:43.802Z,26.13
2018-03-11T03:39:48.661Z,22.10
2018-03-11T03:45:53.399Z,29.00
2018-03-11T03:51:57.884Z,23.03
2018-03-11T03:58:02.384Z,25.20
2018-03-11T04:04:06.960Z,24.10
2018-03-11T04:10:11.475Z,26.00
2018-03-11T04:16:17.044Z,28.73
2018-03-11T04:22:21.964Z,25.23
2018-03-11T04:28:26.475Z,26.20
2018-03-11T04:34:31.197Z,25.43
2018-03-11T04:40:36.513Z,27.63
2018-03-11T04:46:41.072Z,25.80
2018-03-11T04:52:45.764Z,29.77
2018-03-11T04:58:51.198Z,29.43
2018-03-11T05:04:55.739Z,35.10
2018-03-11T05:11:00.326Z,29.83
2018-03-11T05:17:04.949Z,36.80
2018-03-11T05:23:09.516Z,34.10
2018-03-11T05:29:14.119Z,38.10
2018-03-11T05:35:19.123Z,37.47
2018-03-11T05:41:23.960Z,38.70
2018-03-11T05:47:28.715Z,37.33
2018-03-11T05:53:33.210Z,43.63
2018-03-11T05:59:38.664Z,41.50
2018-03-11T06:05:43.214Z,39.70
2018-03-11T06:11:47.772Z,40.90
2018-03-11T06:17:52.640Z,43.67
2018-03-11T06:23:57.197Z,40.13
2018-03-11T06:30:01.698Z,42.77
2018-03-11T06:36:06.190Z,42.80
2018-03-11T06:42:10.662Z,35.93
2018-03-11T06:48:16.187Z,34.63
2018-03-11T06:54:20.771Z,38.87
2018-03-11T07:00:25.320Z,30.27
2018-03-11T07:06:29.858Z,41.70
2018-03-11T07:12:34.365Z,35.47
2018-03-11T07:18:38.831Z,29.80
2018-03-11T07:24:44.128Z,29.10
2018-03-11T07:30:48.723Z,26.07
2018-03-11T07:36:53.269Z,24.77
2018-03-11T07:42:57.770Z,25.90
2018-03-11T07:49:02.254Z,32.97
2018-03-11T07:55:06.745Z,27.07
2018-03-11T08:01:11.315Z,31.33
2018-03-11T08:07:15.991Z,31.63
2018-03-11T08:13:22.306Z,28.50
2018-03-11T08:19:26.836Z,26.77
2018-03-11T08:25:31.415Z,24.43
2018-03-11T08:31:35.955Z,23.00
2018-03-11T08:37:41.337Z,24.90
2018-03-11T08:43:47.154Z,24.57
2018-03-11T08:49:51.747Z,24.63
2018-03-11T08:55:56.999Z,23.97
2018-03-11T09:02:01.503Z,21.50
2018-03-11T09:08:06.001Z,27.90
2018-03-11T09:14:10.491Z,20.63
2018-03-11T09:20:15.764Z,22.30
2018-03-11T09:26:21.631Z,24.40
2018-03-11T09:32:26.944Z,21.00
2018-03-11T09:38:31.419Z,23.00
2018-03-11T09:44:35.988Z,16.90
2018-03-11T09:50:40.482Z,17.70
2018-03-11T09:56:44.985Z,18.40
2018-03-11T10:02:50.227Z,32.57
2018-03-11T10:08:54.783Z,44.03
2018-03-11T10:15:00.051Z,27.77
2018-03-11T10:21:04.618Z,18.27
2018-03-11T10:27:09.201Z,19.43
2018-03-11T10:33:15.023Z,15.03
2018-03-11T10:39:19.666Z,13.60
2018-03-11T10:45:24.357Z,15.10
2018-03-11T10:51:28.842Z,12.63
2018-03-11T10:57:34.187Z,15.10
2018-03-11T11:03:38.854Z,12.57
2018-03-11T11:09:43.376Z,13.20
2018-03-11T11:15:47.971Z,11.20
2018-03-11T11:21:52.719Z,12.77
2018-03-11T11:27:57.246Z,11.83
2018-03-11T11:34:01.885Z,12.00
2018-03-11T11:40:06.545Z,9.70
2018-03-11T11:46:11.928Z,11.30
2018-03-11T11:52:16.492Z,10.33
2018-03-11T11:58:22.055Z,12.57
2018-03-11T12:04:26.569Z,14.50
2018-03-11T12:10:31.205Z,12.47
2018-03-11T12:16:35.695Z,13.13
2018-03-11T12:22:40.238Z,12.60
2018-03-11T12:28:44.684Z,12.93
2018-03-11T12:34:49.367Z,10.30
2018-03-11T12:40:54.647Z,10.10
2018-03-11T12:46:59.151Z,12.80
2018-03-11T12:53:03.657Z,10.93
2018-03-11T12:59:08.130Z,12.40
2018-03-11T13:05:13.411Z,10.53
2018-03-11T13:11:19.472Z,12.70
2018-03-11T13:17:24.273Z,10.90
2018-03-11T13:23:28.806Z,11.03
2018-03-11T13:29:33.331Z,11.97
2018-03-11T13:35:37.971Z,11.43
2018-03-11T13:41:42.751Z,10.77
2018-03-11T13:47:47.698Z,11.57
2018-03-11T13:53:53.868Z,10.63
2018-03-11T13:59:58.471Z,10.63
2018-03-11T14:06:03.099Z,10.23
2018-03-11T14:12:08.431Z,10.10
2018-03-11T14:18:12.893Z,10.97
2018-03-11T14:24:17.366Z,8.90
2018-03-11T14:30:21.958Z,8.10
2018-03-11T14:36:27.250Z,15.27
2018-03-11T14:42:31.731Z,9.60
2018-03-11T14:48:36.210Z,23.57
2018-03-11T14:54:40.875Z,7.87
2018-03-11T15:00:45.422Z,10.73
2018-03-11T15:06:50.199Z,9.80
2018-03-11T15:12:54.828Z,11.40
2018-03-11T15:18:59.301Z,15.57
2018-03-11T15:25:04.538Z,10.53
2018-03-11T15:31:09.118Z,12.73
2018-03-11T15:37:13.616Z,10.67
2018-03-11T15:43:19.750Z,12.47
2018-03-11T15:49:24.530Z,8.73
2018-03-11T15:55:29.019Z,7.97
2018-03-11T16:01:34.416Z,9.20
2018-03-11T16:07:39.805Z,8.70
2018-03-11T16:13:45.104Z,7.90
2018-03-11T16:19:50.594Z,10.03
2018-03-11T16:25:55.141Z,6.87
2018-03-11T16:31:59.618Z,6.60
2018-03-11T16:38:04.110Z,6.13
2018-03-11T16:44:08.569Z,4.70
2018-03-11T16:50:13.038Z,5.93
2018-03-11T16:56:18.010Z,5.40
2018-03-11T17:02:22.943Z,4.90
2018-03-11T17:08:27.419Z,4.20
2018-03-11T17:14:32.698Z,7.97
2018-03-11T17:20:37.404Z,3.20
2018-03-11T17:26:42.774Z,7.37
2018-03-11T17:32:47.350Z,5.43
2018-03-11T17:38:51.887Z,9.80
2018-03-11T17:44:57.186Z,8.27
2018-03-11T17:51:01.583Z,9.20
2018-03-11T17:57:06.239Z,9.30
2018-03-11T18:03:10.767Z,8.63
2018-03-11T18:09:15.388Z,9.13
2018-03-11T18:15:20.912Z,9.77
2018-03-11T18:21:26.182Z,6.00
2018-03-11T18:27:30.678Z,6.10
2018-03-11T18:33:35.114Z,5.50
2018-03-11T18:39:39.574Z,7.50
2018-03-11T18:45:44.042Z,7.93
2018-03-11T18:51:50.124Z,3.37
2018-03-11T18:57:55.376Z,3.43
2018-03-11T19:03:59.888Z,2.57
2018-03-11T19:10:04.444Z,4.53
2018-03-11T19:16:08.962Z,4.60
2018-03-11T19:22:13.456Z,3.13
2018-03-11T19:28:18.899Z,4.30
2018-03-11T19:34:23.595Z,2.10
2018-03-11T19:40:28.069Z,3.73
2018-03-11T19:46:33.330Z,3.97
2018-03-11T19:52:37.810Z,3.10
2018-03-11T19:58:42.294Z,4.27
2018-03-11T20:04:47.218Z,4.33
2018-03-11T20:10:52.169Z,3.70
2018-03-11T20:16:56.645Z,3.17
2018-03-11T20:23:01.109Z,2.50
2018-03-11T20:29:05.680Z,2.57
2018-03-11T20:35:10.198Z,9.50
2018-03-11T20:41:15.809Z,7.73
2018-03-11T20:47:21.725Z,7.57
2018-03-11T20:53:27.005Z,5.60
2018-03-11T20:59:32.245Z,5.80
2018-03-11T21:05:36.761Z,4.80
2018-03-11T21:11:41.238Z,4.33
2018-03-11T21:17:47.707Z,8.37
2018-03-11T21:23:52.347Z,8.83
2018-03-11T21:29:56.858Z,13.13
2018-03-11T21:36:02.170Z,9.03
2018-03-11T21:42:06.647Z,12.27
2018-03-11T21:48:11.139Z,9.03
2018-03-11T21:54:15.846Z,10.47
2018-03-11T22:00:21.064Z,9.13
2018-03-11T22:06:25.667Z,8.23
2018-03-11T22:12:30.953Z,8.57
2018-03-11T22:18:35.532Z,10.60
2018-03-11T22:24:39.997Z,10.07
2018-03-11T22:30:44.487Z,10.60
2018-03-11T22:36:49.873Z,7.63
2018-03-11T22:42:54.429Z,6.97
2018-03-11T22:48:58.888Z,9.47
2018-03-11T22:55:04.187Z,9.43
2018-03-11T23:01:08.727Z,12.53
2018-03-11T23:07:13.207Z,13.70
2018-03-11T23:13:18.993Z,16.90
2018-03-11T23:19:23.607Z,20.13
2018-03-11T23:25:29.541Z,13.93
2018-03-11T23:31:33.954Z,12.77
2018-03-11T23:37:38.357Z,10.20
2018-03-11T23:43:43.726Z,10.53
2018-03-11T23:49:48.439Z,12.60
2018-03-11T23:55:52.909Z,12.90
